createdAt,value
2023-12-20T00:00:10.710Z,30.40
2023-12-20T00:01:10.912Z,30.37
2023-12-20T00:02:10.810Z,30.35
2023-12-20T00:03:10.870Z,30.42
2023-12-20T00:04:10.978Z,30.37
2023-12-20T00:05:10.995Z,30.36
2023-12-20T00:06:11.154Z,30.37
2023-12-20T00:07:11.203Z,30.39
2023-12-20T00:08:11.245Z,30.37
2023-12-20T00:09:11.216Z,30.39
2023-12-20T00:10:11.312Z,30.36
2023-12-20T00:11:11.308Z,30.36
2023-12-20T00:12:11.391Z,30.38
2023-12-20T00:13:11.477Z,30.36
2023-12-20T00:14:11.482Z,30.40
2023-12-20T00:15:11.547Z,30.39
2023-12-20T00:16:11.669Z,30.39
2023-12-20T00:17:11.645Z,30.43
2023-12-20T00:18:11.752Z,30.41
2023-12-20T00:19:12.005Z,30.38
2023-12-20T00:20:11.931Z,30.38
2023-12-20T00:21:11.865Z,30.36
2023-12-20T00:22:12.008Z,30.34
2023-12-20T00:23:11.989Z,30.37
2023-12-20T00:24:12.046Z,30.42
2023-12-20T00:25:12.142Z,30.40
2023-12-20T00:26:12.160Z,30.44
2023-12-20T00:27:12.222Z,30.40
2023-12-20T00:28:12.294Z,30.36
2023-12-20T00:29:12.321Z,30.41
2023-12-20T00:30:12.401Z,30.40
2023-12-20T00:31:12.595Z,30.44
2023-12-20T00:32:12.480Z,30.44
2023-12-20T00:33:12.619Z,30.41
2023-12-20T00:34:12.756Z,30.41
2023-12-20T00:35:12.643Z,30.38
2023-12-20T00:36:12.695Z,30.44
2023-12-20T00:37:12.761Z,30.38
2023-12-20T00:38:12.828Z,30.42
2023-12-20T00:39:12.892Z,30.38
2023-12-20T00:40:12.938Z,30.34
2023-12-20T00:41:12.961Z,30.42
2023-12-20T00:42:13.042Z,30.44
2023-12-20T00:43:13.107Z,30.42
2023-12-20T00:44:13.144Z,30.44
2023-12-20T00:45:13.183Z,30.39
2023-12-20T00:46:13.314Z,30.41
2023-12-20T00:47:13.312Z,30.47
2023-12-20T00:48:13.443Z,30.42
2023-12-20T00:49:13.519Z,30.44
2023-12-20T00:50:13.552Z,30.41
2023-12-20T00:51:13.545Z,30.39
2023-12-20T00:52:13.608Z,30.41
2023-12-20T00:53:13.627Z,30.42
2023-12-20T00:54:13.707Z,30.44
2023-12-20T00:55:13.757Z,30.45
2023-12-20T00:56:13.787Z,30.45
2023-12-20T00:57:13.841Z,30.42
2023-12-20T00:58:13.904Z,30.40
2023-12-20T00:59:13.951Z,30.43
2023-12-20T01:00:14.009Z,30.45
2023-12-20T01:01:14.191Z,30.45
2023-12-20T01:02:14.105Z,30.39
2023-12-20T01:03:14.204Z,30.49
2023-12-20T01:04:14.332Z,30.43
2023-12-20T01:05:14.271Z,30.47
2023-12-20T01:06:14.382Z,30.43
2023-12-20T01:07:14.422Z,30.39
2023-12-20T01:08:14.431Z,30.42
2023-12-20T01:09:14.509Z,30.43
2023-12-20T01:10:14.577Z,30.43
2023-12-20T01:11:14.610Z,30.46
2023-12-20T01:12:14.680Z,30.39
2023-12-20T01:13:14.805Z,30.41
2023-12-20T01:14:14.776Z,30.46
2023-12-20T01:15:14.809Z,30.42
2023-12-20T01:16:14.938Z,30.46
2023-12-20T01:17:14.907Z,30.43
2023-12-20T01:18:14.994Z,30.45
2023-12-20T01:19:15.124Z,30.41
2023-12-20T01:20:15.186Z,30.44
2023-12-20T01:21:15.135Z,30.45
2023-12-20T01:22:15.234Z,30.43
2023-12-20T01:23:15.258Z,30.44
2023-12-20T01:24:15.320Z,30.43
2023-12-20T01:25:15.397Z,30.50
2023-12-20T01:26:15.433Z,30.46
2023-12-20T01:27:15.498Z,30.49
2023-12-20T01:28:15.565Z,30.47
2023-12-20T01:29:15.603Z,30.49
2023-12-20T01:30:15.692Z,30.47
2023-12-20T01:31:15.786Z,30.41
2023-12-20T01:32:16.733Z,30.46
2023-12-20T01:33:15.724Z,30.42
2023-12-20T01:34:15.776Z,30.48
2023-12-20T01:35:15.842Z,30.50
2023-12-20T01:36:15.726Z,30.50
2023-12-20T01:37:15.780Z,30.46
2023-12-20T01:38:15.721Z,30.44
2023-12-20T01:39:25.144Z,30.47
2023-12-20T01:40:16.808Z,30.48
2023-12-20T01:41:15.763Z,30.50
2023-12-20T01:42:15.748Z,30.48
2023-12-20T01:43:15.805Z,30.48
2023-12-20T01:44:15.754Z,30.44
2023-12-20T01:45:15.753Z,30.47
2023-12-20T01:46:15.803Z,30.44
2023-12-20T01:47:15.747Z,30.47
2023-12-20T01:48:15.840Z,30.54
2023-12-20T01:49:15.931Z,30.42
2023-12-20T01:50:15.889Z,30.48
2023-12-20T01:51:15.911Z,30.46
2023-12-20T01:52:15.996Z,30.47
2023-12-20T01:53:16.033Z,30.48
2023-12-20T01:54:16.097Z,30.45
2023-12-20T01:55:16.212Z,30.49
2023-12-20T01:56:16.213Z,30.48
2023-12-20T01:57:16.257Z,30.49
2023-12-20T01:58:16.360Z,30.50
2023-12-20T01:59:16.395Z,30.45
2023-12-20T02:00:16.465Z,30.46
2023-12-20T02:01:16.564Z,30.51
2023-12-20T02:02:16.568Z,30.46
2023-12-20T02:03:16.637Z,30.56
2023-12-20T02:04:16.761Z,30.48
2023-12-20T02:05:16.859Z,30.45
2023-12-20T02:06:16.863Z,30.48
2023-12-20T02:07:16.972Z,30.47
2023-12-20T02:08:16.923Z,30.49
2023-12-20T02:09:17.043Z,30.51
2023-12-20T02:10:17.212Z,30.56
2023-12-20T02:11:17.138Z,30.46
2023-12-20T02:12:17.180Z,30.45
2023-12-20T02:13:17.305Z,30.49
2023-12-20T02:14:17.311Z,30.46
2023-12-20T02:15:17.369Z,30.50
2023-12-20T02:16:17.459Z,30.46
2023-12-20T02:17:17.510Z,30.51
2023-12-20T02:18:17.694Z,30.52
2023-12-20T02:19:17.665Z,30.49
2023-12-20T02:20:17.675Z,30.52
2023-12-20T02:21:17.748Z,30.49
2023-12-20T02:22:17.930Z,30.51
2023-12-20T02:23:17.901Z,30.49
2023-12-20T02:24:17.944Z,30.47
2023-12-20T02:25:18.080Z,30.47
2023-12-20T02:26:18.065Z,30.47
2023-12-20T02:27:18.143Z,30.50
2023-12-20T02:28:18.245Z,30.51
2023-12-20T02:29:18.254Z,30.51
2023-12-20T02:30:18.375Z,30.46
2023-12-20T02:31:18.423Z,30.55
2023-12-20T02:32:18.452Z,30.50
2023-12-20T02:33:18.516Z,30.49
2023-12-20T02:34:18.628Z,30.50
2023-12-20T02:35:18.670Z,30.53
2023-12-20T02:36:18.710Z,30.46
2023-12-20T02:37:18.924Z,30.48
2023-12-20T02:38:18.831Z,30.52
2023-12-20T02:39:18.887Z,30.49
2023-12-20T02:40:19.084Z,30.46
2023-12-20T02:41:19.038Z,30.49
2023-12-20T02:42:19.084Z,30.47
2023-12-20T02:44:19.273Z,30.42
2023-12-20T02:45:19.261Z,30.40
2023-12-20T02:46:19.390Z,30.42
2023-12-20T02:47:19.372Z,30.44
2023-12-20T02:48:19.544Z,30.42
2023-12-20T02:49:19.708Z,30.35
2023-12-20T02:50:19.537Z,30.35
2023-12-20T02:51:19.614Z,30.34
2023-12-20T02:52:19.744Z,30.31
2023-12-20T02:53:19.720Z,30.28
2023-12-20T02:54:19.774Z,30.25
2023-12-20T02:55:19.938Z,30.26
2023-12-20T02:56:19.893Z,30.26
2023-12-20T02:57:19.950Z,30.23
2023-12-20T02:58:20.061Z,30.23
2023-12-20T02:59:20.062Z,30.25
2023-12-20T03:00:20.104Z,30.20
2023-12-20T03:01:20.238Z,30.26
2023-12-20T03:02:20.215Z,30.17
2023-12-20T03:03:20.262Z,30.19
2023-12-20T03:04:20.452Z,30.18
2023-12-20T03:05:20.561Z,30.22
2023-12-20T03:06:20.582Z,30.16
2023-12-20T03:07:20.647Z,30.12
2023-12-20T03:08:20.548Z,30.13
2023-12-20T03:09:20.606Z,30.13
2023-12-20T03:10:26.778Z,30.12
2023-12-20T03:11:21.658Z,30.16
2023-12-20T03:12:20.672Z,30.11
2023-12-20T03:13:20.837Z,30.11
2023-12-20T03:14:20.697Z,30.15
2023-12-20T03:15:20.671Z,30.09
2023-12-20T03:16:20.711Z,30.06
2023-12-20T03:17:20.666Z,30.05
2023-12-20T03:18:20.697Z,30.08
2023-12-20T03:19:20.803Z,30.08
2023-12-20T03:20:20.689Z,30.09
2023-12-20T03:21:20.682Z,30.09
2023-12-20T03:22:20.726Z,30.02
2023-12-20T03:23:20.798Z,30.07
2023-12-20T03:24:20.852Z,30.06
2023-12-20T03:25:20.924Z,30.11
2023-12-20T03:26:20.948Z,30.04
2023-12-20T03:27:21.005Z,30.09
2023-12-20T03:28:21.146Z,30.02
2023-12-20T03:29:21.122Z,30.04
2023-12-20T03:30:21.201Z,30.07
2023-12-20T03:31:21.287Z,30.08
2023-12-20T03:32:21.310Z,30.05
2023-12-20T03:33:21.338Z,30.05
2023-12-20T03:34:21.521Z,30.05
2023-12-20T03:35:21.494Z,30.07
2023-12-20T03:36:21.502Z,30.04
2023-12-20T03:37:21.656Z,30.08
2023-12-20T03:38:21.629Z,30.08
2023-12-20T03:39:21.672Z,30.05
2023-12-20T03:40:21.826Z,30.08
2023-12-20T03:41:21.774Z,30.07
2023-12-20T03:42:21.849Z,30.04
2023-12-20T03:43:21.958Z,30.07
2023-12-20T03:44:22.300Z,30.04
2023-12-20T03:45:22.062Z,30.05
2023-12-20T03:46:22.114Z,30.05
2023-12-20T03:47:22.111Z,30.08
2023-12-20T03:48:22.197Z,30.07
2023-12-20T03:49:22.320Z,30.05
2023-12-20T03:50:22.354Z,29.98
2023-12-20T03:51:22.343Z,30.04
2023-12-20T03:52:22.493Z,30.07
2023-12-20T03:53:22.440Z,30.04
2023-12-20T03:54:22.540Z,30.05
2023-12-20T03:55:22.613Z,30.03
2023-12-20T03:56:22.597Z,30.01
2023-12-20T03:57:22.659Z,30.04
2023-12-20T03:58:22.838Z,30.07
2023-12-20T03:59:22.806Z,30.02
2023-12-20T04:00:22.840Z,30.05
2023-12-20T04:01:22.965Z,30.07
2023-12-20T04:02:22.946Z,30.03
2023-12-20T04:03:23.011Z,30.03
2023-12-20T04:04:23.149Z,30.07
2023-12-20T04:05:23.275Z,30.04
2023-12-20T04:06:23.253Z,30.04
2023-12-20T04:07:23.280Z,30.04
2023-12-20T04:08:23.290Z,30.07
2023-12-20T04:09:23.344Z,30.01
2023-12-20T04:10:23.428Z,30.07
2023-12-20T04:11:23.453Z,30.03
2023-12-20T04:12:23.514Z,30.09
2023-12-20T04:13:23.683Z,30.03
2023-12-20T04:14:23.626Z,30.02
2023-12-20T04:15:23.677Z,30.00
2023-12-20T04:16:23.771Z,29.93
2023-12-20T04:17:23.856Z,29.96
2023-12-20T04:18:23.934Z,29.93
2023-12-20T04:19:23.966Z,29.93
2023-12-20T04:20:23.986Z,29.89
2023-12-20T04:21:23.993Z,29.87
2023-12-20T04:22:24.199Z,29.88
2023-12-20T04:23:24.084Z,29.75
2023-12-20T04:24:24.122Z,29.77
2023-12-20T04:25:24.207Z,29.75
2023-12-20T04:26:24.218Z,29.70
2023-12-20T04:27:31.447Z,29.67
2023-12-20T04:28:31.702Z,29.68
2023-12-20T04:29:31.469Z,29.63
2023-12-20T04:30:31.471Z,29.62
2023-12-20T04:31:38.860Z,29.62
2023-12-20T04:32:38.673Z,29.59
2023-12-20T04:33:38.710Z,29.54
2023-12-20T04:34:38.697Z,29.50
2023-12-20T04:35:38.694Z,29.50
2023-12-20T04:36:38.677Z,29.44
2023-12-20T04:37:38.671Z,29.46
2023-12-20T04:38:38.709Z,29.46
2023-12-20T04:39:38.670Z,29.43
2023-12-20T04:40:38.676Z,29.37
2023-12-20T04:41:38.706Z,29.36
2023-12-20T04:42:38.677Z,29.38
2023-12-20T04:43:38.717Z,29.32
2023-12-20T04:44:38.689Z,29.33
2023-12-20T04:45:38.690Z,29.31
2023-12-20T04:46:38.685Z,29.34
2023-12-20T04:47:38.746Z,29.31
2023-12-20T04:48:38.786Z,29.25
2023-12-20T04:49:38.875Z,29.22
2023-12-20T04:50:38.700Z,29.25
2023-12-20T04:51:38.706Z,29.18
2023-12-20T04:52:38.706Z,29.22
2023-12-20T04:53:38.743Z,29.18
2023-12-20T04:54:40.165Z,29.21
2023-12-20T04:55:38.817Z,29.20
2023-12-20T04:56:38.798Z,29.20
2023-12-20T04:57:38.815Z,29.20
2023-12-20T04:58:38.818Z,29.16
2023-12-20T04:59:38.839Z,29.19
2023-12-20T05:00:51.535Z,29.20
2023-12-20T05:01:51.597Z,29.16
2023-12-20T05:02:51.497Z,29.13
2023-12-20T05:03:51.541Z,29.17
2023-12-20T05:04:53.011Z,29.19
2023-12-20T05:05:51.494Z,29.10
2023-12-20T05:06:51.551Z,29.17
2023-12-20T05:07:51.614Z,29.17
2023-12-20T05:08:51.510Z,29.23
2023-12-20T05:09:51.554Z,29.21
2023-12-20T05:10:51.501Z,29.16
2023-12-20T05:11:51.516Z,29.17
2023-12-20T05:12:51.548Z,29.19
2023-12-20T05:13:51.653Z,29.21
2023-12-20T05:14:51.529Z,29.17
2023-12-20T05:15:51.546Z,29.19
2023-12-20T05:16:51.522Z,29.18
2023-12-20T05:17:51.576Z,29.13
2023-12-20T05:18:51.600Z,29.15
2023-12-20T05:19:51.596Z,29.13
2023-12-20T05:20:51.522Z,29.17
2023-12-20T05:21:51.541Z,29.21
2023-12-20T05:22:51.523Z,29.22
2023-12-20T05:23:51.529Z,29.21
2023-12-20T05:24:51.596Z,29.23
2023-12-20T05:25:51.525Z,29.22
2023-12-20T05:26:53.731Z,29.23
2023-12-20T05:27:51.796Z,29.21
2023-12-20T05:28:51.809Z,29.22
2023-12-20T05:29:51.845Z,29.26
2023-12-20T05:30:51.978Z,29.23
2023-12-20T05:31:51.935Z,29.23
2023-12-20T05:32:51.958Z,29.23
2023-12-20T05:33:52.025Z,29.29
2023-12-20T05:34:51.984Z,29.24
2023-12-20T05:35:51.909Z,29.28
2023-12-20T05:36:51.960Z,29.32
2023-12-20T05:37:51.955Z,29.30
2023-12-20T05:38:51.962Z,29.33
2023-12-20T05:39:52.014Z,29.27
2023-12-20T05:40:52.008Z,29.33
2023-12-20T05:41:52.040Z,29.33
2023-12-20T05:42:52.019Z,29.39
2023-12-20T05:43:52.048Z,29.32
2023-12-20T05:44:53.989Z,29.29
2023-12-20T05:45:52.105Z,29.34
2023-12-20T05:46:52.073Z,29.32
2023-12-20T05:47:52.085Z,29.36
2023-12-20T05:48:52.105Z,29.34
2023-12-20T05:49:52.119Z,29.36
2023-12-20T05:50:52.055Z,29.32
2023-12-20T05:51:52.079Z,29.34
2023-12-20T05:52:52.049Z,29.31
2023-12-20T05:53:52.046Z,29.37
2023-12-20T05:54:52.069Z,29.36
2023-12-20T05:55:52.075Z,29.36
2023-12-20T05:56:52.043Z,29.33
2023-12-20T05:57:52.070Z,29.33
2023-12-20T05:58:52.051Z,29.33
2023-12-20T05:59:52.053Z,29.30
2023-12-20T06:00:52.127Z,29.28
2023-12-20T06:01:52.097Z,29.28
2023-12-20T06:02:52.074Z,29.25
2023-12-20T06:03:52.106Z,29.20
2023-12-20T06:04:52.154Z,29.22
2023-12-20T06:05:54.147Z,29.19
2023-12-20T06:06:52.149Z,29.18
2023-12-20T06:07:52.217Z,29.15
2023-12-20T06:08:52.071Z,29.14
2023-12-20T06:09:52.153Z,29.12
2023-12-20T06:10:52.098Z,29.07
2023-12-20T06:11:52.096Z,29.08
2023-12-20T06:12:52.111Z,29.04
2023-12-20T06:13:52.066Z,29.07
2023-12-20T06:14:52.074Z,29.00
2023-12-20T06:15:52.103Z,29.01
2023-12-20T06:16:52.080Z,29.01
2023-12-20T06:17:52.239Z,29.01
2023-12-20T06:18:52.335Z,29.06
2023-12-20T06:19:52.139Z,29.04
2023-12-20T06:20:52.635Z,29.04
2023-12-20T06:21:52.153Z,29.04
2023-12-20T06:22:52.224Z,29.04
2023-12-20T06:23:52.125Z,28.96
2023-12-20T06:24:52.108Z,29.01
2023-12-20T06:25:52.093Z,29.04
2023-12-20T06:26:52.104Z,29.07
2023-12-20T06:27:52.138Z,28.96
2023-12-20T06:28:52.111Z,29.03
2023-12-20T06:29:52.146Z,28.99
2023-12-20T06:30:52.168Z,29.05
2023-12-20T06:31:52.181Z,29.02
2023-12-20T06:32:52.139Z,29.11
2023-12-20T06:33:52.189Z,29.06
2023-12-20T06:34:52.191Z,29.13
2023-12-20T06:35:52.103Z,29.24
2023-12-20T06:36:52.154Z,29.37
2023-12-20T06:37:52.102Z,29.43
2023-12-20T06:38:52.117Z,29.52
2023-12-20T06:39:52.121Z,29.65
2023-12-20T06:40:52.148Z,29.93
2023-12-20T06:41:52.140Z,30.03
2023-12-20T06:43:01.750Z,30.19
2023-12-20T06:43:53.178Z,30.32
2023-12-20T06:44:52.153Z,30.52
2023-12-20T06:45:52.221Z,31.27
2023-12-20T06:46:52.187Z,31.21
2023-12-20T06:47:52.135Z,31.17
2023-12-20T06:48:52.259Z,31.34
2023-12-20T06:49:52.195Z,31.52
2023-12-20T06:50:52.119Z,31.63
2023-12-20T06:51:52.147Z,31.92
2023-12-20T06:52:52.133Z,31.85
2023-12-20T06:53:52.125Z,32.11
2023-12-20T06:54:52.223Z,32.24
2023-12-20T06:55:52.242Z,32.47
2023-12-20T06:56:52.299Z,32.75
2023-12-20T06:57:52.380Z,32.95
2023-12-20T06:58:52.393Z,33.03
2023-12-20T06:59:52.469Z,33.31
2023-12-20T07:00:52.660Z,33.38
2023-12-20T07:01:52.662Z,33.64
2023-12-20T07:02:52.607Z,33.51
2023-12-20T07:03:52.707Z,33.78
2023-12-20T07:04:52.730Z,33.97
2023-12-20T07:05:52.757Z,34.11
2023-12-20T07:06:52.888Z,34.29
2023-12-20T07:07:52.913Z,34.42
2023-12-20T07:08:52.942Z,34.69
2023-12-20T07:09:52.970Z,34.79
2023-12-20T07:10:52.983Z,34.80
2023-12-20T07:11:53.013Z,34.74
2023-12-20T07:12:53.072Z,34.95
2023-12-20T07:13:53.127Z,34.84
2023-12-20T07:14:53.178Z,34.92
2023-12-20T07:15:53.211Z,35.10
2023-12-20T07:16:53.221Z,35.15
2023-12-20T07:17:53.381Z,35.29
2023-12-20T07:18:53.379Z,35.34
2023-12-20T07:19:53.444Z,35.56
2023-12-20T07:20:53.420Z,35.75
2023-12-20T07:21:53.447Z,35.77
2023-12-20T07:22:53.610Z,35.79
2023-12-20T07:23:53.405Z,35.73
2023-12-20T07:24:53.598Z,35.83
2023-12-20T07:25:53.494Z,35.93
2023-12-20T07:26:53.522Z,36.03
2023-12-20T07:27:54.083Z,35.96
2023-12-20T07:28:53.705Z,36.10
2023-12-20T07:29:53.607Z,36.10
2023-12-20T07:30:53.745Z,36.25
2023-12-20T07:31:53.676Z,36.38
2023-12-20T07:32:53.785Z,36.25
2023-12-20T07:33:53.807Z,36.70
2023-12-20T07:34:53.735Z,36.51
2023-12-20T07:35:53.887Z,36.00
2023-12-20T07:36:53.786Z,35.66
2023-12-20T07:37:53.804Z,35.18
2023-12-20T07:38:53.832Z,34.85
2023-12-20T07:39:54.183Z,34.69
2023-12-20T07:40:53.929Z,34.77
2023-12-20T07:41:53.912Z,35.12
2023-12-20T07:42:53.976Z,35.11
2023-12-20T07:43:54.215Z,35.09
2023-12-20T07:44:54.009Z,35.33
2023-12-20T07:45:54.096Z,35.43
2023-12-20T07:46:54.077Z,34.95
2023-12-20T07:47:54.150Z,34.64
2023-12-20T07:48:54.250Z,35.13
2023-12-20T07:49:54.797Z,34.97
2023-12-20T07:50:54.214Z,34.66
2023-12-20T07:51:54.238Z,34.65
2023-12-20T07:52:54.245Z,34.25
2023-12-20T07:53:54.268Z,34.30
2023-12-20T07:54:54.386Z,34.10
2023-12-20T07:55:54.336Z,34.01
2023-12-20T07:56:54.371Z,34.49
2023-12-20T07:57:54.451Z,34.20
2023-12-20T07:58:55.470Z,33.89
2023-12-20T07:59:54.704Z,34.06
2023-12-20T08:00:54.601Z,34.22
2023-12-20T08:01:54.679Z,34.40
2023-12-20T08:02:54.586Z,34.45
2023-12-20T08:03:54.735Z,34.82
2023-12-20T08:04:54.658Z,34.93
2023-12-20T08:05:54.687Z,35.18
2023-12-20T08:06:54.756Z,35.43
2023-12-20T08:07:54.743Z,35.48
2023-12-20T08:08:58.891Z,35.72
2023-12-20T08:09:55.739Z,35.62
2023-12-20T08:10:54.737Z,35.80
2023-12-20T08:11:54.693Z,35.85
2023-12-20T08:12:54.749Z,36.07
2023-12-20T08:13:54.716Z,36.05
2023-12-20T08:14:54.700Z,36.20
2023-12-20T08:15:54.715Z,36.11
2023-12-20T08:16:54.696Z,36.33
2023-12-20T08:17:54.807Z,36.34
2023-12-20T08:18:54.773Z,36.69
2023-12-20T08:19:54.759Z,36.82
2023-12-20T08:20:54.715Z,36.74
2023-12-20T08:21:54.804Z,36.79
2023-12-20T08:22:54.716Z,36.94
2023-12-20T08:23:54.751Z,37.12
2023-12-20T08:24:54.814Z,37.27
2023-12-20T08:25:54.745Z,37.68
2023-12-20T08:26:54.842Z,37.42
2023-12-20T08:27:54.864Z,37.63
2023-12-20T08:28:55.476Z,38.12
2023-12-20T08:29:55.052Z,38.02
2023-12-20T08:30:55.322Z,37.92
2023-12-20T08:31:55.283Z,37.80
2023-12-20T08:32:55.225Z,37.81
2023-12-20T08:33:55.398Z,37.48
2023-12-20T08:34:55.398Z,37.32
2023-12-20T08:35:55.365Z,35.85
2023-12-20T08:36:55.502Z,34.14
2023-12-20T08:37:55.413Z,32.11
2023-12-20T08:38:55.465Z,30.90
2023-12-20T08:39:55.470Z,29.64
2023-12-20T08:40:55.507Z,29.09
2023-12-20T08:41:55.582Z,28.85
2023-12-20T08:42:55.658Z,28.71
2023-12-20T08:43:55.652Z,28.46
2023-12-20T08:44:55.662Z,28.04
2023-12-20T08:45:55.707Z,27.96
2023-12-20T08:46:55.699Z,28.39
2023-12-20T08:47:56.642Z,28.70
2023-12-20T08:48:56.436Z,29.20
2023-12-20T08:49:55.936Z,29.56
2023-12-20T08:50:55.872Z,29.75
2023-12-20T08:51:55.902Z,29.81
2023-12-20T08:52:55.942Z,30.00
2023-12-20T08:53:55.942Z,30.34
2023-12-20T08:54:56.006Z,30.45
2023-12-20T08:55:56.059Z,30.65
2023-12-20T08:56:56.126Z,30.90
2023-12-20T08:57:56.234Z,30.94
2023-12-20T08:58:56.250Z,31.06
2023-12-20T08:59:56.293Z,31.31
2023-12-20T09:00:56.473Z,31.59
2023-12-20T09:01:56.478Z,31.49
2023-12-20T09:02:56.400Z,31.86
2023-12-20T09:03:56.454Z,32.18
2023-12-20T09:04:56.570Z,32.23
2023-12-20T09:05:56.453Z,32.56
2023-12-20T09:06:56.594Z,32.37
2023-12-20T09:07:56.541Z,32.43
2023-12-20T09:08:56.539Z,32.50
2023-12-20T09:09:56.598Z,32.64
2023-12-20T09:10:57.233Z,32.90
2023-12-20T09:11:56.548Z,32.95
2023-12-20T09:12:56.594Z,32.89
2023-12-20T09:13:56.590Z,32.97
2023-12-20T09:14:56.567Z,33.10
2023-12-20T09:15:56.587Z,33.35
2023-12-20T09:16:56.574Z,33.45
2023-12-20T09:17:56.662Z,33.49
2023-12-20T09:18:56.711Z,33.49
2023-12-20T09:19:56.730Z,34.11
2023-12-20T09:20:56.675Z,33.99
2023-12-20T09:21:56.670Z,34.00
2023-12-20T09:22:56.641Z,34.11
2023-12-20T09:23:56.628Z,33.98
2023-12-20T09:24:56.738Z,34.25
2023-12-20T09:25:58.318Z,34.06
2023-12-20T09:26:56.649Z,34.01
2023-12-20T09:27:56.721Z,33.88
2023-12-20T09:28:56.670Z,33.78
2023-12-20T09:29:56.677Z,33.77
2023-12-20T09:30:56.793Z,33.70
2023-12-20T09:31:56.755Z,33.70
2023-12-20T09:32:56.798Z,33.69
2023-12-20T09:33:57.008Z,33.55
2023-12-20T09:34:56.871Z,33.47
2023-12-20T09:35:56.873Z,33.45
2023-12-20T09:36:56.853Z,33.51
2023-12-20T09:37:56.858Z,33.51
2023-12-20T09:38:57.223Z,33.47
2023-12-20T09:39:56.999Z,33.44
2023-12-20T09:40:56.984Z,33.41
2023-12-20T09:41:57.013Z,33.54
2023-12-20T09:42:57.147Z,33.84
2023-12-20T09:43:57.097Z,33.76
2023-12-20T09:44:57.135Z,34.28
2023-12-20T09:45:57.191Z,34.19
2023-12-20T09:46:57.217Z,34.16
2023-12-20T09:47:57.285Z,34.14
2023-12-20T09:48:57.839Z,34.26
2023-12-20T09:49:57.468Z,34.21
2023-12-20T09:50:57.361Z,34.38
2023-12-20T09:51:57.405Z,34.51
2023-12-20T09:52:57.457Z,35.22
2023-12-20T09:53:57.465Z,35.18
2023-12-20T09:54:57.585Z,35.60
2023-12-20T09:55:57.448Z,35.74
2023-12-20T09:56:57.511Z,35.84
2023-12-20T09:57:57.732Z,35.96
2023-12-20T09:58:57.509Z,36.38
2023-12-20T09:59:57.526Z,36.76
2023-12-20T10:00:57.655Z,36.60
2023-12-20T10:01:58.441Z,37.02
2023-12-20T10:02:57.544Z,37.01
2023-12-20T10:03:57.640Z,36.90
2023-12-20T10:04:57.857Z,37.00
2023-12-20T10:05:57.692Z,37.35
2023-12-20T10:06:57.714Z,37.01
2023-12-20T10:07:57.674Z,37.38
2023-12-20T10:08:57.697Z,37.79
2023-12-20T10:09:57.734Z,37.73
2023-12-20T10:10:57.714Z,38.04
2023-12-20T10:11:57.638Z,37.64
2023-12-20T10:12:57.701Z,37.74
2023-12-20T10:13:57.739Z,37.92
2023-12-20T10:14:57.798Z,37.85
2023-12-20T10:15:57.869Z,37.97
2023-12-20T10:16:57.901Z,38.00
2023-12-20T10:18:01.713Z,38.11
2023-12-20T10:18:58.114Z,38.20
2023-12-20T10:19:58.050Z,38.31
2023-12-20T10:20:58.040Z,38.42
2023-12-20T10:21:58.049Z,38.67
2023-12-20T10:22:57.999Z,38.76
2023-12-20T10:23:57.986Z,39.28
2023-12-20T10:24:58.031Z,38.88
2023-12-20T10:25:57.966Z,38.75
2023-12-20T10:26:57.964Z,38.78
2023-12-20T10:27:58.016Z,38.97
2023-12-20T10:28:57.973Z,38.90
2023-12-20T10:29:57.988Z,39.05
2023-12-20T10:30:58.198Z,39.13
2023-12-20T10:31:58.110Z,36.47
2023-12-20T10:32:58.005Z,33.49
2023-12-20T10:33:58.830Z,32.14
2023-12-20T10:34:58.178Z,30.21
2023-12-20T10:35:58.029Z,27.77
2023-12-20T10:36:58.056Z,27.82
2023-12-20T10:37:58.741Z,27.85
2023-12-20T10:38:58.043Z,28.24
2023-12-20T10:39:58.120Z,28.30
2023-12-20T10:40:58.133Z,28.72
2023-12-20T10:41:58.213Z,29.58
2023-12-20T10:42:58.287Z,29.04
2023-12-20T10:43:58.329Z,29.37
2023-12-20T10:44:58.743Z,29.42
2023-12-20T10:45:58.542Z,29.50
2023-12-20T10:46:58.497Z,29.42
2023-12-20T10:47:58.609Z,29.88
2023-12-20T10:48:58.883Z,29.91
2023-12-20T10:49:58.814Z,30.04
2023-12-20T10:50:58.751Z,30.29
2023-12-20T10:51:58.991Z,30.29
2023-12-20T10:52:58.847Z,30.53
2023-12-20T10:53:58.868Z,30.47
2023-12-20T10:54:58.948Z,30.63
2023-12-20T10:55:58.987Z,30.69
2023-12-20T10:56:59.094Z,30.50
2023-12-20T10:57:59.116Z,30.49
2023-12-20T10:58:59.108Z,30.87
2023-12-20T10:59:59.145Z,30.99
2023-12-20T11:00:59.230Z,30.99
2023-12-20T11:01:59.326Z,31.08
2023-12-20T11:02:59.242Z,30.85
2023-12-20T11:03:59.452Z,30.92
2023-12-20T11:04:59.397Z,31.00
2023-12-20T11:05:59.422Z,31.04
2023-12-20T11:06:59.438Z,31.23
2023-12-20T11:07:59.413Z,31.23
2023-12-20T11:08:59.494Z,31.12
2023-12-20T11:09:59.488Z,31.16
2023-12-20T11:10:59.497Z,31.17
2023-12-20T11:11:59.526Z,31.26
2023-12-20T11:12:59.616Z,31.27
2023-12-20T11:13:59.620Z,31.34
2023-12-20T11:14:59.630Z,31.37
2023-12-20T11:15:59.669Z,31.37
2023-12-20T11:16:59.687Z,31.40
2023-12-20T11:17:59.745Z,31.41
2023-12-20T11:18:59.789Z,31.57
2023-12-20T11:19:59.847Z,31.57
2023-12-20T11:20:59.733Z,31.43
2023-12-20T11:21:59.794Z,31.23
2023-12-20T11:22:59.769Z,32.11
2023-12-20T11:23:59.789Z,31.41
2023-12-20T11:24:59.834Z,31.62
2023-12-20T11:25:59.843Z,31.46
2023-12-20T11:26:59.848Z,31.42
2023-12-20T11:27:59.894Z,31.14
2023-12-20T11:29:00.270Z,30.75
2023-12-20T11:30:00.316Z,30.37
2023-12-20T11:31:00.119Z,29.80
2023-12-20T11:32:00.034Z,29.89
2023-12-20T11:33:00.147Z,30.52
2023-12-20T11:34:00.379Z,29.50
2023-12-20T11:35:00.512Z,29.81
2023-12-20T11:36:00.280Z,29.80
2023-12-20T11:37:00.300Z,29.97
2023-12-20T11:38:00.324Z,30.03
2023-12-20T11:39:00.768Z,30.06
2023-12-20T11:40:00.604Z,30.21
2023-12-20T11:41:00.414Z,30.37
2023-12-20T11:42:00.465Z,30.33
2023-12-20T11:43:00.514Z,30.42
2023-12-20T11:44:00.564Z,30.58
2023-12-20T11:45:00.631Z,30.45
2023-12-20T11:46:00.627Z,30.54
2023-12-20T11:47:00.630Z,30.41
2023-12-20T11:48:00.732Z,30.53
2023-12-20T11:49:00.812Z,30.45
2023-12-20T11:50:00.854Z,30.44
2023-12-20T11:51:00.804Z,30.56
2023-12-20T11:52:00.832Z,30.47
2023-12-20T11:53:00.835Z,30.43
2023-12-20T11:54:00.889Z,30.40
2023-12-20T11:55:00.948Z,30.33
2023-12-20T11:56:00.931Z,30.20
2023-12-20T11:57:00.953Z,30.36
2023-12-20T11:58:01.113Z,30.39
2023-12-20T11:59:12.844Z,30.28
2023-12-20T12:00:02.066Z,30.22
2023-12-20T12:01:01.066Z,30.24
2023-12-20T12:02:01.044Z,30.24
2023-12-20T12:03:01.025Z,30.31
2023-12-20T12:04:01.111Z,30.35
2023-12-20T12:05:01.172Z,30.44
2023-12-20T12:06:01.002Z,30.55
2023-12-20T12:07:01.043Z,30.73
2023-12-20T12:08:01.013Z,31.03
2023-12-20T12:09:01.014Z,31.28
2023-12-20T12:10:01.073Z,31.34
2023-12-20T12:11:01.086Z,31.49
2023-12-20T12:12:01.021Z,31.66
2023-12-20T12:13:01.030Z,31.57
2023-12-20T12:14:01.078Z,31.79
2023-12-20T12:15:01.020Z,31.64
2023-12-20T12:16:01.053Z,31.84
2023-12-20T12:17:01.122Z,31.76
2023-12-20T12:18:01.064Z,31.38
2023-12-20T12:19:01.061Z,31.19
2023-12-20T12:20:01.037Z,30.98
2023-12-20T12:21:01.359Z,30.87
2023-12-20T12:22:01.091Z,30.88
2023-12-20T12:23:01.141Z,30.89
2023-12-20T12:24:01.165Z,30.77
2023-12-20T12:25:01.230Z,30.83
2023-12-20T12:26:01.808Z,30.98
2023-12-20T12:27:01.332Z,30.99
2023-12-20T12:28:01.412Z,31.03
2023-12-20T12:29:01.390Z,30.85
2023-12-20T12:30:01.463Z,30.74
2023-12-20T12:31:01.875Z,30.69
2023-12-20T12:32:01.690Z,30.70
2023-12-20T12:33:01.764Z,30.64
2023-12-20T12:34:01.840Z,30.62
2023-12-20T12:35:01.962Z,30.53
2023-12-20T12:36:01.844Z,30.56
2023-12-20T12:37:01.908Z,30.49
2023-12-20T12:38:01.951Z,30.46
2023-12-20T12:39:02.024Z,30.53
2023-12-20T12:40:02.199Z,30.63
2023-12-20T12:41:02.147Z,30.52
2023-12-20T12:42:02.254Z,30.46
2023-12-20T12:43:02.355Z,30.41
2023-12-20T12:44:08.337Z,30.48
2023-12-20T12:45:03.375Z,30.35
2023-12-20T12:46:02.390Z,30.28
2023-12-20T12:47:02.386Z,30.27
2023-12-20T12:48:02.441Z,30.21
2023-12-20T12:49:02.435Z,30.24
2023-12-20T12:50:02.497Z,30.19
2023-12-20T12:51:02.803Z,30.19
2023-12-20T12:52:02.394Z,30.12
2023-12-20T12:53:02.361Z,30.09
2023-12-20T12:54:02.381Z,30.19